createdAt,value
2023-01-03T00:01:08.927Z,26.12
2023-01-03T00:03:41.189Z,25.79
2023-01-03T00:06:33.457Z,25.62
2023-01-03T00:09:14.422Z,25.10
2023-01-03T00:12:10.732Z,25.27
2023-01-03T00:14:49.841Z,25.40
2023-01-03T00:17:23.155Z,25.41
2023-01-03T00:19:53.740Z,25.52
2023-01-03T00:22:24.712Z,25.38
2023-01-03T00:24:58.372Z,25.51
2023-01-03T00:27:39.451Z,25.37
2023-01-03T00:30:10.485Z,25.05
2023-01-03T00:32:40.585Z,24.93
2023-01-03T00:35:14.562Z,24.95
2023-01-03T00:37:49.288Z,25.12
2023-01-03T00:40:22.930Z,25.43
2023-01-03T00:43:14.527Z,25.53
2023-01-03T00:45:47.903Z,25.71
2023-01-03T00:48:26.081Z,26.17
2023-01-03T00:50:56.604Z,26.33
2023-01-03T00:53:29.791Z,26.16
2023-01-03T00:56:08.391Z,26.10
2023-01-03T00:58:45.119Z,25.32
2023-01-03T01:01:18.880Z,25.28
2023-01-03T01:04:01.212Z,25.67
2023-01-03T01:06:44.742Z,25.74
2023-01-03T01:09:16.233Z,25.75
2023-01-03T01:11:49.839Z,25.68
2023-01-03T01:14:23.402Z,25.81
2023-01-03T01:16:59.018Z,26.11
2023-01-03T01:19:47.073Z,26.17
2023-01-03T01:22:23.375Z,26.07
2023-01-03T01:24:53.446Z,26.28
2023-01-03T01:27:26.145Z,26.44
2023-01-03T01:29:59.288Z,26.25
2023-01-03T01:32:29.732Z,25.98
2023-01-03T01:35:02.650Z,26.16
2023-01-03T01:37:33.374Z,26.47
2023-01-03T01:40:04.445Z,26.05
2023-01-03T01:42:53.023Z,25.89
2023-01-03T01:45:26.211Z,26.04
2023-01-03T01:47:59.145Z,26.08
2023-01-03T01:50:49.346Z,26.04
2023-01-03T01:53:37.141Z,26.23
2023-01-03T01:56:35.985Z,26.47
2023-01-03T01:59:10.404Z,26.55
2023-01-03T02:01:42.936Z,26.06
2023-01-03T02:04:23.739Z,26.21
2023-01-03T02:06:54.669Z,26.05
2023-01-03T02:09:25.116Z,26.00
2023-01-03T02:12:22.988Z,26.31
2023-01-03T02:15:33.419Z,26.48
2023-01-03T02:18:08.447Z,26.52
2023-01-03T02:21:41.177Z,26.32
2023-01-03T02:24:49.249Z,26.37
2023-01-03T02:27:57.943Z,26.38
2023-01-03T02:30:57.847Z,26.36
2023-01-03T02:33:51.477Z,26.50
2023-01-03T02:36:42.438Z,26.48
2023-01-03T02:39:41.386Z,26.57
2023-01-03T02:43:03.424Z,26.61
2023-01-03T02:46:06.569Z,26.63
2023-01-03T02:49:09.415Z,26.59
2023-01-03T02:51:47.485Z,26.54
2023-01-03T02:54:47.080Z,26.42
2023-01-03T02:57:32.993Z,25.95
2023-01-03T03:00:25.956Z,25.95
2023-01-03T03:03:02.975Z,25.84
2023-01-03T03:05:53.705Z,25.92
2023-01-03T03:08:27.495Z,25.93
2023-01-03T03:11:21.636Z,26.21
2023-01-03T03:14:18.996Z,26.25
2023-01-03T03:16:52.923Z,26.26
2023-01-03T03:19:50.635Z,26.23
2023-01-03T03:23:23.951Z,26.22
2023-01-03T03:26:05.963Z,26.22
2023-01-03T03:28:49.788Z,26.26
2023-01-03T03:31:37.130Z,26.29
2023-01-03T03:34:36.468Z,26.26
2023-01-03T03:37:28.844Z,26.19
2023-01-03T03:40:19.845Z,26.20
2023-01-03T03:43:18.725Z,26.02
2023-01-03T03:46:09.452Z,25.84
2023-01-03T03:49:16.817Z,25.99
2023-01-03T03:51:53.275Z,25.88
2023-01-03T03:54:29.003Z,25.85
2023-01-03T03:57:26.069Z,25.94
2023-01-03T04:00:19.015Z,26.08
2023-01-03T04:02:55.346Z,26.09
2023-01-03T04:05:41.414Z,26.13
2023-01-03T04:08:24.587Z,26.25
2023-01-03T04:11:08.952Z,26.17
2023-01-03T04:13:41.280Z,26.20
2023-01-03T04:16:16.713Z,26.06
2023-01-03T04:18:52.331Z,26.02
2023-01-03T04:21:23.733Z,25.93
2023-01-03T04:23:59.884Z,25.95
2023-01-03T04:26:35.969Z,25.97
2023-01-03T04:29:06.020Z,25.99
2023-01-03T04:31:39.281Z,25.98
2023-01-03T04:34:12.255Z,26.00
2023-01-03T04:36:42.728Z,25.95
2023-01-03T04:39:18.828Z,25.99
2023-01-03T04:41:49.703Z,25.97
2023-01-03T04:44:19.781Z,25.86
2023-01-03T04:46:53.100Z,25.82
2023-01-03T04:49:23.421Z,25.80
2023-01-03T04:52:05.569Z,25.87
2023-01-03T04:54:45.653Z,25.86
2023-01-03T04:57:25.534Z,25.89
2023-01-03T05:00:01.039Z,25.88
2023-01-03T05:02:39.618Z,25.80
2023-01-03T05:05:18.482Z,25.83
2023-01-03T05:07:48.955Z,25.72
2023-01-03T05:10:23.028Z,25.77
2023-01-03T05:13:02.049Z,25.73
2023-01-03T05:15:38.927Z,25.65
2023-01-03T05:18:13.551Z,25.57
2023-01-03T05:21:02.105Z,25.56
2023-01-03T05:23:51.239Z,25.45
2023-01-03T05:26:23.433Z,25.42
2023-01-03T05:29:00.323Z,25.39
2023-01-03T05:31:34.397Z,25.36
2023-01-03T05:34:30.533Z,25.41
2023-01-03T05:37:03.646Z,25.55
2023-01-03T05:39:36.821Z,25.60
2023-01-03T05:42:07.071Z,25.69
2023-01-03T05:44:40.220Z,25.74
2023-01-03T05:47:17.315Z,25.84
2023-01-03T05:49:50.593Z,25.67
2023-01-03T05:52:24.279Z,25.76
2023-01-03T05:54:57.552Z,25.78
2023-01-03T05:57:44.848Z,25.78
2023-01-03T06:00:26.400Z,25.95
2023-01-03T06:03:17.408Z,25.88
2023-01-03T06:05:54.878Z,25.94
2023-01-03T06:08:33.325Z,25.78
2023-01-03T06:11:14.219Z,25.83
2023-01-03T06:13:44.940Z,25.87
2023-01-03T06:16:38.666Z,26.04
2023-01-03T06:19:12.145Z,25.79
2023-01-03T06:21:55.917Z,25.66
2023-01-03T06:24:27.900Z,25.51
2023-01-03T06:27:01.208Z,25.30
2023-01-03T06:29:31.269Z,25.86
2023-01-03T06:32:09.091Z,25.80
2023-01-03T06:34:42.166Z,25.80
2023-01-03T06:37:15.394Z,25.73
2023-01-03T06:39:46.729Z,25.63
2023-01-03T06:42:38.191Z,25.90
2023-01-03T06:45:27.307Z,25.64
2023-01-03T06:48:33.500Z,25.88
2023-01-03T06:51:24.777Z,25.98
2023-01-03T06:53:59.256Z,26.04
2023-01-03T06:56:32.031Z,25.95
2023-01-03T06:59:02.710Z,25.84
2023-01-03T07:01:43.905Z,25.98
2023-01-03T07:04:14.852Z,26.11
2023-01-03T07:06:51.052Z,25.94
2023-01-03T07:09:21.960Z,26.01
2023-01-03T07:11:55.472Z,25.93
2023-01-03T07:14:28.049Z,26.07
2023-01-03T07:17:00.972Z,25.86
2023-01-03T07:19:31.505Z,25.94
2023-01-03T07:22:02.292Z,26.04
2023-01-03T07:24:35.331Z,25.76
2023-01-03T07:27:08.340Z,25.84
2023-01-03T07:29:38.895Z,25.98
2023-01-03T07:32:09.076Z,25.90
2023-01-03T07:34:42.387Z,25.99
2023-01-03T07:37:12.574Z,26.02
2023-01-03T07:39:43.069Z,26.00
2023-01-03T07:42:32.197Z,26.03
2023-01-03T07:45:05.601Z,26.10
2023-01-03T07:47:38.163Z,26.10
2023-01-03T07:50:08.862Z,26.15
2023-01-03T07:52:41.839Z,26.09
2023-01-03T07:55:21.149Z,26.03
2023-01-03T07:57:52.911Z,26.15
2023-01-03T08:00:23.699Z,26.22
2023-01-03T08:03:00.654Z,26.06
2023-01-03T08:05:41.172Z,26.04
2023-01-03T08:08:12.166Z,25.95
2023-01-03T08:11:03.635Z,25.98
2023-01-03T08:13:36.194Z,26.07
2023-01-03T08:16:11.840Z,26.04
2023-01-03T08:18:48.063Z,25.99
2023-01-03T08:21:24.810Z,26.10
2023-01-03T08:23:54.997Z,26.05
2023-01-03T08:26:31.540Z,26.09
2023-01-03T08:29:04.640Z,26.03
2023-01-03T08:31:39.236Z,25.99
2023-01-03T08:34:19.660Z,25.66
2023-01-03T08:37:03.504Z,25.55
2023-01-03T08:40:00.606Z,25.59
2023-01-03T08:42:40.831Z,25.64
2023-01-03T08:45:15.490Z,25.46
2023-01-03T08:47:54.327Z,25.57
2023-01-03T08:50:27.805Z,25.49
2023-01-03T08:53:05.070Z,25.57
2023-01-03T08:55:35.834Z,25.59
2023-01-03T08:58:06.266Z,25.76
2023-01-03T09:00:44.888Z,25.78
2023-01-03T09:03:15.561Z,25.98
2023-01-03T09:05:45.970Z,25.89
2023-01-03T09:08:19.613Z,25.94
2023-01-03T09:11:01.951Z,26.11
2023-01-03T09:13:32.454Z,26.10
2023-01-03T09:16:22.223Z,25.91
2023-01-03T09:18:52.667Z,26.00
2023-01-03T09:21:25.661Z,25.94
2023-01-03T09:23:56.224Z,26.01
2023-01-03T09:26:26.460Z,26.04
2023-01-03T09:29:05.789Z,25.97
2023-01-03T09:31:41.121Z,25.83
2023-01-03T09:34:11.650Z,25.98
2023-01-03T09:36:42.026Z,25.95
2023-01-03T09:39:26.214Z,25.99
2023-01-03T09:42:14.303Z,25.90
2023-01-03T09:44:49.959Z,26.03
2023-01-03T09:47:29.917Z,26.04
2023-01-03T09:53:14.528Z,26.05
2023-01-03T09:56:07.518Z,26.27
2023-01-03T09:58:59.727Z,26.41
2023-01-03T10:01:58.309Z,26.60
2023-01-03T10:04:53.456Z,26.93
2023-01-03T10:07:45.179Z,27.22
2023-01-03T10:10:31.729Z,27.27
2023-01-03T10:13:33.253Z,27.42
2023-01-03T10:16:50.800Z,27.32
2023-01-03T10:20:07.881Z,27.28
2023-01-03T10:22:39.055Z,27.48
2023-01-03T10:25:12.143Z,27.80
2023-01-03T10:28:01.267Z,28.22
2023-01-03T10:30:59.626Z,28.45
2023-01-03T10:33:46.630Z,28.57
2023-01-03T10:36:21.974Z,28.23
2023-01-03T10:39:09.789Z,28.39
2023-01-03T10:41:50.039Z,28.62
2023-01-03T10:44:37.249Z,28.67
2023-01-03T10:47:28.071Z,28.78
2023-01-03T10:50:03.602Z,28.76
2023-01-03T10:52:47.694Z,28.81
2023-01-03T10:55:22.156Z,28.53
2023-01-03T10:57:55.200Z,28.49
2023-01-03T11:00:28.359Z,28.47
2023-01-03T11:03:07.314Z,28.57
2023-01-03T11:05:38.694Z,28.77
2023-01-03T11:08:37.719Z,28.72
2023-01-03T11:11:33.335Z,28.87
2023-01-03T11:14:21.378Z,29.00
2023-01-03T11:16:57.763Z,28.85
2023-01-03T11:19:33.273Z,28.90
2023-01-03T11:22:41.785Z,29.11
2023-01-03T11:25:44.763Z,29.47
2023-01-03T11:28:52.072Z,29.92
2023-01-03T11:31:59.434Z,30.29
2023-01-03T11:35:20.958Z,30.64
2023-01-03T11:38:11.531Z,31.29
2023-01-03T11:41:11.109Z,32.77
2023-01-03T11:43:50.933Z,33.38
2023-01-03T11:46:58.497Z,33.67
2023-01-03T11:49:53.860Z,34.09
2023-01-03T11:52:53.623Z,34.36
2023-01-03T11:55:44.538Z,34.38
2023-01-03T11:58:22.131Z,33.90
2023-01-03T12:01:04.727Z,33.47
2023-01-03T12:04:15.157Z,32.46
2023-01-03T12:07:48.514Z,31.59
2023-01-03T12:10:36.733Z,31.21
2023-01-03T12:13:29.353Z,31.06
2023-01-03T12:16:18.700Z,30.96
2023-01-03T12:19:17.780Z,30.75
2023-01-03T12:22:10.553Z,30.52
2023-01-03T12:25:24.678Z,30.85
2023-01-03T12:28:12.936Z,31.51
2023-01-03T12:31:06.853Z,32.36
2023-01-03T12:33:49.150Z,33.45
2023-01-03T12:36:46.626Z,33.85
2023-01-03T12:39:44.282Z,33.38
2023-01-03T12:42:32.735Z,32.91
2023-01-03T12:45:23.065Z,32.67
2023-01-03T12:48:07.990Z,32.78
2023-01-03T12:50:55.748Z,32.92
2023-01-03T12:53:47.184Z,33.40
2023-01-03T12:59:51.588Z,32.54
2023-01-03T13:02:31.622Z,32.44
2023-01-03T13:05:20.650Z,32.18
2023-01-03T13:08:27.254Z,33.95
2023-01-03T13:11:02.524Z,34.60
2023-01-03T13:13:34.707Z,34.29
2023-01-03T13:16:38.889Z,34.65
2023-01-03T13:19:24.891Z,34.70
2023-01-03T13:21:54.904Z,34.77
2023-01-03T13:24:53.453Z,34.05
2023-01-03T13:27:36.217Z,33.61
2023-01-03T13:30:30.537Z,33.20
2023-01-03T13:33:17.732Z,33.28
2023-01-03T13:35:48.839Z,33.14
2023-01-03T13:38:38.481Z,32.87
2023-01-03T13:41:38.994Z,32.51
2023-01-03T13:44:24.410Z,34.01
2023-01-03T13:46:55.353Z,35.36
2023-01-03T13:49:32.899Z,36.56
2023-01-03T13:52:10.502Z,37.12
2023-01-03T13:55:00.256Z,38.57
2023-01-03T13:57:39.586Z,38.89
2023-01-03T14:00:19.989Z,37.65
2023-01-03T14:03:32.826Z,37.42
2023-01-03T14:06:44.325Z,37.18
2023-01-03T14:09:53.641Z,37.40
2023-01-03T14:12:49.512Z,37.17
2023-01-03T14:15:27.178Z,37.42
2023-01-03T14:18:14.120Z,37.03
2023-01-03T14:21:00.471Z,36.44
2023-01-03T14:26:27.255Z,37.86
2023-01-03T14:29:00.416Z,37.76
2023-01-03T14:31:34.928Z,37.97
2023-01-03T14:34:11.643Z,37.50
2023-01-03T14:36:52.802Z,37.60
2023-01-03T14:42:08.024Z,37.30
2023-01-03T14:44:40.336Z,36.89
2023-01-03T14:47:18.770Z,37.49
2023-01-03T14:50:00.592Z,36.68
2023-01-03T14:52:46.887Z,35.71
2023-01-03T14:55:44.023Z,35.52
2023-01-03T14:58:34.331Z,36.63
2023-01-03T15:01:24.248Z,36.32
2023-01-03T15:03:55.564Z,34.96
2023-01-03T15:06:56.961Z,35.53
2023-01-03T15:09:39.051Z,35.58
2023-01-03T15:12:19.730Z,36.48
2023-01-03T15:14:53.463Z,37.43
2023-01-03T15:17:28.136Z,38.02
2023-01-03T15:19:58.841Z,38.13
2023-01-03T15:22:49.756Z,38.49
2023-01-03T15:25:28.521Z,39.77
2023-01-03T15:28:17.540Z,40.35
2023-01-03T15:30:51.736Z,40.77
2023-01-03T15:33:36.112Z,40.97
2023-01-03T15:36:20.220Z,39.90
2023-01-03T15:38:53.257Z,39.90
2023-01-03T15:42:12.675Z,40.07
2023-01-03T15:45:06.920Z,40.73
2023-01-03T15:47:42.726Z,40.09
2023-01-03T15:50:19.789Z,39.39
2023-01-03T15:55:39.467Z,39.99
2023-01-03T15:58:13.846Z,40.44
2023-01-03T16:00:46.645Z,41.03
2023-01-03T16:03:21.738Z,40.46
2023-01-03T16:05:54.626Z,40.19
2023-01-03T16:08:37.428Z,40.68
2023-01-03T16:11:33.682Z,41.76
2023-01-03T16:14:21.614Z,41.70
2023-01-03T16:16:57.439Z,41.09
2023-01-03T16:19:29.366Z,40.29
2023-01-03T16:22:33.845Z,39.74
2023-01-03T16:25:06.525Z,38.67
2023-01-03T16:27:41.894Z,37.81
2023-01-03T16:30:15.567Z,38.88
2023-01-03T16:32:48.738Z,39.76
2023-01-03T16:35:27.716Z,40.59
2023-01-03T16:38:00.600Z,41.12
2023-01-03T16:40:36.646Z,41.11
2023-01-03T16:43:14.401Z,40.83
2023-01-03T16:45:47.697Z,40.19
2023-01-03T16:48:22.369Z,40.26
2023-01-03T16:51:01.700Z,41.24
2023-01-03T16:53:42.290Z,41.89
2023-01-03T16:56:25.265Z,41.88
2023-01-03T16:58:55.300Z,41.72
2023-01-03T17:01:34.501Z,40.86
2023-01-03T17:04:09.916Z,40.49
2023-01-03T17:06:41.677Z,41.09
2023-01-03T17:09:25.614Z,41.88
2023-01-03T17:11:56.864Z,41.45
2023-01-03T17:14:27.413Z,42.26
2023-01-03T17:17:00.459Z,42.99
2023-01-03T17:22:24.785Z,41.58
2023-01-03T17:24:56.024Z,40.58
2023-01-03T17:27:32.413Z,40.08
2023-01-03T17:30:06.038Z,38.16
2023-01-03T17:32:39.695Z,38.51
2023-01-03T17:35:15.526Z,39.52
2023-01-03T17:40:46.686Z,41.19
2023-01-03T17:43:25.645Z,41.72
2023-01-03T17:46:37.579Z,42.05
2023-01-03T17:49:27.492Z,40.82
2023-01-03T17:52:10.988Z,39.67
2023-01-03T17:54:42.819Z,38.41
2023-01-03T17:57:14.976Z,39.40
2023-01-03T17:59:45.503Z,39.67
2023-01-03T18:02:27.015Z,37.93
2023-01-03T18:05:21.271Z,36.18
2023-01-03T18:07:53.395Z,35.65
2023-01-03T18:10:35.596Z,34.75
2023-01-03T18:13:34.157Z,33.51
2023-01-03T18:16:22.942Z,32.60
2023-01-03T18:18:55.864Z,31.87
2023-01-03T18:21:29.297Z,32.31
2023-01-03T18:24:00.851Z,32.75
2023-01-03T18:26:46.396Z,32.66
2023-01-03T18:29:19.817Z,31.00
2023-01-03T18:31:52.872Z,30.22
2023-01-03T18:34:25.801Z,29.94
2023-01-03T18:37:01.263Z,29.75
2023-01-03T18:39:34.175Z,29.68
2023-01-03T18:42:32.222Z,29.81
2023-01-03T18:45:02.271Z,29.80
2023-01-03T18:47:33.343Z,30.22
2023-01-03T18:50:20.246Z,30.43
2023-01-03T18:52:54.699Z,30.76
2023-01-03T18:55:35.407Z,31.35
2023-01-03T18:58:24.241Z,31.05
2023-01-03T19:00:54.297Z,31.39
2023-01-03T19:03:30.140Z,31.50
2023-01-03T19:06:06.557Z,32.12
2023-01-03T19:08:40.003Z,32.01
2023-01-03T19:11:17.276Z,32.83
2023-01-03T19:13:55.511Z,32.96
2023-01-03T19:16:45.887Z,32.85
2023-01-03T19:19:19.047Z,32.67
2023-01-03T19:21:51.927Z,32.48
2023-01-03T19:24:39.205Z,32.38
2023-01-03T19:27:19.791Z,32.08
2023-01-03T19:30:04.562Z,31.90
2023-01-03T19:32:39.334Z,31.88
2023-01-03T19:35:19.596Z,31.38
2023-01-03T19:37:53.499Z,30.92
2023-01-03T19:40:28.900Z,30.05
2023-01-03T19:43:00.903Z,30.43
2023-01-03T19:45:40.589Z,30.59
2023-01-03T19:48:29.451Z,30.26
2023-01-03T19:51:03.365Z,30.28
2023-01-03T19:53:36.309Z,29.82
2023-01-03T19:56:21.683Z,29.41
2023-01-03T19:58:54.481Z,29.28
2023-01-03T20:01:38.562Z,29.18
2023-01-03T20:04:19.788Z,29.04
2023-01-03T20:06:51.016Z,28.84
2023-01-03T20:09:23.861Z,28.78
2023-01-03T20:11:57.704Z,28.85
2023-01-03T20:14:27.784Z,29.05
2023-01-03T20:17:00.587Z,28.95
2023-01-03T20:19:31.740Z,28.71
2023-01-03T20:22:06.827Z,28.72
2023-01-03T20:24:40.337Z,28.57
2023-01-03T20:27:23.090Z,28.54
2023-01-03T20:30:00.723Z,28.65
2023-01-03T20:32:31.209Z,28.47
2023-01-03T20:35:35.411Z,28.69
2023-01-03T20:37:58.668Z,28.52
2023-01-03T20:40:33.572Z,28.37
2023-01-03T20:43:06.326Z,28.45
2023-01-03T20:48:36.753Z,28.42
2023-01-03T20:51:13.886Z,27.96
2023-01-03T20:53:53.899Z,27.74
2023-01-03T20:56:33.160Z,27.40
2023-01-03T20:59:03.680Z,27.50
2023-01-03T21:01:39.613Z,27.42
2023-01-03T21:04:13.236Z,27.49
2023-01-03T21:06:48.743Z,27.30
2023-01-03T21:09:29.253Z,27.36
2023-01-03T21:12:04.876Z,27.21
2023-01-03T21:14:35.493Z,27.42
2023-01-03T21:17:09.440Z,27.59
2023-01-03T21:19:40.924Z,27.55
2023-01-03T21:22:21.809Z,27.62
2023-01-03T21:24:57.559Z,27.55
2023-01-03T21:27:27.825Z,27.58
2023-01-03T21:30:03.955Z,27.57
2023-01-03T21:32:51.745Z,27.57
2023-01-03T21:35:24.061Z,27.29
2023-01-03T21:38:01.760Z,27.22
2023-01-03T21:40:32.793Z,26.84
2023-01-03T21:43:06.204Z,26.80
2023-01-03T21:45:51.450Z,26.97
2023-01-03T21:48:37.310Z,26.89
2023-01-03T21:51:08.027Z,26.73
2023-01-03T21:53:46.135Z,26.67
2023-01-03T21:56:25.222Z,26.56
2023-01-03T21:59:00.440Z,26.56
2023-01-03T22:01:53.405Z,26.65
2023-01-03T22:04:27.206Z,26.52
2023-01-03T22:07:01.984Z,26.43
2023-01-03T22:09:52.511Z,26.19
2023-01-03T22:12:22.774Z,26.43
2023-01-03T22:15:01.178Z,26.45
2023-01-03T22:17:31.256Z,26.53
2023-01-03T22:20:07.608Z,26.47
2023-01-03T22:22:37.886Z,26.19
2023-01-03T22:25:12.030Z,25.84
2023-01-03T22:27:51.339Z,25.74
2023-01-03T22:30:24.731Z,25.42
2023-01-03T22:33:20.421Z,25.37
2023-01-03T22:35:50.942Z,25.06
2023-01-03T22:38:20.437Z,25.15
2023-01-03T22:40:56.439Z,25.00
2023-01-03T22:43:28.685Z,24.75
2023-01-03T22:45:59.215Z,24.49
2023-01-03T22:48:32.397Z,24.63
2023-01-03T22:51:08.558Z,24.59
2023-01-03T22:53:40.762Z,24.45
2023-01-03T22:56:19.135Z,24.33
2023-01-03T22:58:52.081Z,24.08
2023-01-03T23:01:33.563Z,24.15
2023-01-03T23:04:04.767Z,23.98
2023-01-03T23:06:37.512Z,24.19
2023-01-03T23:09:10.680Z,24.05
2023-01-03T23:12:02.272Z,24.14
2023-01-03T23:14:36.676Z,24.07
2023-01-03T23:17:25.610Z,24.09
2023-01-03T23:19:55.666Z,24.14
2023-01-03T23:22:32.084Z,24.31
2023-01-03T23:25:02.102Z,24.09
2023-01-03T23:27:35.798Z,24.12
2023-01-03T23:30:12.152Z,23.84
2023-01-03T23:32:48.344Z,23.89
2023-01-03T23:35:22.221Z,23.73
2023-01-03T23:38:01.378Z,23.87
2023-01-03T23:40:32.161Z,23.73
2023-01-03T23:43:05.655Z,23.50
2023-01-03T23:45:35.760Z,23.65
2023-01-03T23:48:06.551Z,23.64
2023-01-03T23:50:36.631Z,23.71
2023-01-03T23:53:10.092Z,23.83
2023-01-03T23:55:42.672Z,23.99
2023-01-03T23:58:14.904Z,23.88
